sensor_id;sensor_type;location;lat;lon;timestamp;temperature;humidity
8261;DHT22;64115;50.170;8.242;2022-10-29T00:02:16;13.60;99.90
8261;DHT22;64115;50.170;8.242;2022-10-29T00:04:42;13.60;99.90
8261;DHT22;64115;50.170;8.242;2022-10-29T00:07:09;13.60;99.90
8261;DHT22;64115;50.170;8.242;2022-10-29T00:09:36;13.60;99.90
8261;DHT22;64115;50.170;8.242;2022-10-29T00:12:03;13.50;99.90
8261;DHT22;64115;50.170;8.242;2022-10-29T00:14:30;13.50;99.90
8261;DHT22;64115;50.170;8.242;2022-10-29T00:16:57;13.50;99.90
8261;DHT22;64115;50.170;8.242;2022-10-29T00:19:25;13.40;99.90
8261;DHT22;64115;50.170;8.242;2022-10-29T00:21:52;13.40;99.90
8261;DHT22;64115;50.170;8.242;2022-10-29T00:24:19;13.30;99.90
8261;DHT22;64115;50.170;8.242;2022-10-29T00:26:46;13.30;99.90
8261;DHT22;64115;50.170;8.242;2022-10-29T00:29:12;13.30;99.90
8261;DHT22;64115;50.170;8.242;2022-10-29T00:31:39;13.30;99.90
8261;DHT22;64115;50.170;8.242;2022-10-29T00:34:06;13.30;99.90
8261;DHT22;64115;50.170;8.242;2022-10-29T00:36:34;13.30;99.90
8261;DHT22;64115;50.170;8.242;2022-10-29T00:39:01;13.30;99.90
8261;DHT22;64115;50.170;8.242;2022-10-29T00:41:28;13.30;99.90
8261;DHT22;64115;50.170;8.242;2022-10-29T00:44:29;13.20;99.90
8261;DHT22;64115;50.170;8.242;2022-10-29T00:47:00;13.20;99.90
8261;DHT22;64115;50.170;8.242;2022-10-29T00:49:29;13.20;99.90
8261;DHT22;64115;50.170;8.242;2022-10-29T00:51:57;13.20;99.90
8261;DHT22;64115;50.170;8.242;2022-10-29T00:54:26;13.20;99.90
8261;DHT22;64115;50.170;8.242;2022-10-29T00:56:57;13.30;99.90
8261;DHT22;64115;50.170;8.242;2022-10-29T00:59:25;13.30;99.90
8261;DHT22;64115;50.170;8.242;2022-10-29T01:01:52;13.30;99.90
8261;DHT22;64115;50.170;8.242;2022-10-29T01:04:20;13.20;99.90
8261;DHT22;64115;50.170;8.242;2022-10-29T01:06:47;13.20;99.90
8261;DHT22;64115;50.170;8.242;2022-10-29T01:09:16;13.20;99.90
8261;DHT22;64115;50.170;8.242;2022-10-29T01:11:50;13.20;99.90
8261;DHT22;64115;50.170;8.242;2022-10-29T01:14:28;13.20;99.90
8261;DHT22;64115;50.170;8.242;2022-10-29T01:17:02;13.20;99.90
8261;DHT22;64115;50.170;8.242;2022-10-29T01:19:45;13.20;99.90
8261;DHT22;64115;50.170;8.242;2022-10-29T01:22:24;13.20;99.90
8261;DHT22;64115;50.170;8.242;2022-10-29T01:25:10;13.20;99.90
8261;DHT22;64115;50.170;8.242;2022-10-29T01:27:54;13.20;99.90
8261;DHT22;64115;50.170;8.242;2022-10-29T01:30:36;13.20;99.90
8261;DHT22;64115;50.170;8.242;2022-10-29T01:33:11;13.20;99.90
8261;DHT22;64115;50.170;8.242;2022-10-29T01:35:48;13.20;99.90
8261;DHT22;64115;50.170;8.242;2022-10-29T01:38:23;13.10;99.90
8261;DHT22;64115;50.170;8.242;2022-10-29T01:40:59;13.10;99.90
8261;DHT22;64115;50.170;8.242;2022-10-29T01:43:33;13.10;99.90
8261;DHT22;64115;50.170;8.242;2022-10-29T01:46:05;13.10;99.90
8261;DHT22;64115;50.170;8.242;2022-10-29T01:48:37;13.10;99.90
8261;DHT22;64115;50.170;8.242;2022-10-29T01:51:13;13.10;99.90
8261;DHT22;64115;50.170;8.242;2022-10-29T01:53:43;13.10;99.90
8261;DHT22;64115;50.170;8.242;2022-10-29T01:56:10;13.10;99.90
8261;DHT22;64115;50.170;8.242;2022-10-29T01:58:38;13.10;99.90
8261;DHT22;64115;50.170;8.242;2022-10-29T02:01:14;13.10;99.90
8261;DHT22;64115;50.170;8.242;2022-10-29T02:03:52;13.00;99.90
8261;DHT22;64115;50.170;8.242;2022-10-29T02:06:29;13.00;99.90
8261;DHT22;64115;50.170;8.242;2022-10-29T02:09:06;13.00;99.90
8261;DHT22;64115;50.170;8.242;2022-10-29T02:11:43;13.00;99.90
8261;DHT22;64115;50.170;8.242;2022-10-29T02:14:15;13.00;99.90
8261;DHT22;64115;50.170;8.242;2022-10-29T02:16:43;13.10;99.90
8261;DHT22;64115;50.170;8.242;2022-10-29T02:19:12;13.00;99.90
8261;DHT22;64115;50.170;8.242;2022-10-29T02:21:39;13.10;99.90
8261;DHT22;64115;50.170;8.242;2022-10-29T02:24:07;13.10;99.90
8261;DHT22;64115;50.170;8.242;2022-10-29T02:26:34;13.20;99.90
8261;DHT22;64115;50.170;8.242;2022-10-29T02:29:01;13.20;99.90
8261;DHT22;64115;50.170;8.242;2022-10-29T02:31:28;13.30;99.90
8261;DHT22;64115;50.170;8.242;2022-10-29T03:11:41;13.00;99.90
8261;DHT22;64115;50.170;8.242;2022-10-29T03:14:07;13.00;99.90
8261;DHT22;64115;50.170;8.242;2022-10-29T03:16:34;13.00;99.90
8261;DHT22;64115;50.170;8.242;2022-10-29T03:19:01;13.00;99.90
8261;DHT22;64115;50.170;8.242;2022-10-29T03:21:28;12.90;99.90
8261;DHT22;64115;50.170;8.242;2022-10-29T03:23:55;12.90;99.90
8261;DHT22;64115;50.170;8.242;2022-10-29T03:26:22;12.90;99.90
8261;DHT22;64115;50.170;8.242;2022-10-29T03:28:50;12.90;99.90
8261;DHT22;64115;50.170;8.242;2022-10-29T03:31:17;12.90;99.90
8261;DHT22;64115;50.170;8.242;2022-10-29T03:33:44;12.90;99.90
8261;DHT22;64115;50.170;8.242;2022-10-29T03:36:10;12.90;99.90
8261;DHT22;64115;50.170;8.242;2022-10-29T03:38:37;12.90;99.90
8261;DHT22;64115;50.170;8.242;2022-10-29T03:41:04;12.90;99.90
8261;DHT22;64115;50.170;8.242;2022-10-29T03:43:34;12.90;99.90
8261;DHT22;64115;50.170;8.242;2022-10-29T03:46:03;12.90;99.90
8261;DHT22;64115;50.170;8.242;2022-10-29T03:48:30;13.00;99.90
8261;DHT22;64115;50.170;8.242;2022-10-29T03:50:58;13.00;99.90
8261;DHT22;64115;50.170;8.242;2022-10-29T03:53:26;13.00;99.90
8261;DHT22;64115;50.170;8.242;2022-10-29T03:55:54;13.00;99.90
8261;DHT22;64115;50.170;8.242;2022-10-29T03:58:22;13.10;99.90
8261;DHT22;64115;50.170;8.242;2022-10-29T04:00:53;13.20;99.90
8261;DHT22;64115;50.170;8.242;2022-10-29T04:03:21;13.40;99.90
8261;DHT22;64115;50.170;8.242;2022-10-29T04:05:48;13.40;99.90
8261;DHT22;64115;50.170;8.242;2022-10-29T04:08:15;13.40;99.90
8261;DHT22;64115;50.170;8.242;2022-10-29T04:10:43;13.50;99.90
8261;DHT22;64115;50.170;8.242;2022-10-29T04:13:10;13.60;99.90
8261;DHT22;64115;50.170;8.242;2022-10-29T04:15:36;13.60;99.90
8261;DHT22;64115;50.170;8.242;2022-10-29T04:18:03;13.80;99.90
8261;DHT22;64115;50.170;8.242;2022-10-29T04:20:32;13.90;99.90
8261;DHT22;64115;50.170;8.242;2022-10-29T04:22:58;14.10;99.90
8261;DHT22;64115;50.170;8.242;2022-10-29T04:25:25;14.20;99.90
8261;DHT22;64115;50.170;8.242;2022-10-29T04:27:53;14.30;99.90
8261;DHT22;64115;50.170;8.242;2022-10-29T04:30:19;14.40;99.90
8261;DHT22;64115;50.170;8.242;2022-10-29T04:32:46;14.40;99.90
8261;DHT22;64115;50.170;8.242;2022-10-29T04:35:13;14.50;99.90
8261;DHT22;64115;50.170;8.242;2022-10-29T04:37:41;14.60;99.90
8261;DHT22;64115;50.170;8.242;2022-10-29T04:40:09;14.50;99.90
8261;DHT22;64115;50.170;8.242;2022-10-29T04:42:36;14.50;99.90
8261;DHT22;64115;50.170;8.242;2022-10-29T04:45:03;14.50;99.90
8261;DHT22;64115;50.170;8.242;2022-10-29T04:47:30;14.50;99.90
8261;DHT22;64115;50.170;8.242;2022-10-29T04:49:57;14.50;99.90
8261;DHT22;64115;50.170;8.242;2022-10-29T04:52:24;14.50;99.90
8261;DHT22;64115;50.170;8.242;2022-10-29T04:54:52;14.40;99.90
8261;DHT22;64115;50.170;8.242;2022-10-29T04:57:19;14.40;99.90
8261;DHT22;64115;50.170;8.242;2022-10-29T04:59:46;14.30;99.90
8261;DHT22;64115;50.170;8.242;2022-10-29T05:02:12;14.30;99.90
8261;DHT22;64115;50.170;8.242;2022-10-29T05:04:39;14.30;99.90
8261;DHT22;64115;50.170;8.242;2022-10-29T05:07:06;14.20;99.90
8261;DHT22;64115;50.170;8.242;2022-10-29T05:09:33;14.20;99.90
8261;DHT22;64115;50.170;8.242;2022-10-29T05:12:01;14.20;99.90
8261;DHT22;64115;50.170;8.242;2022-10-29T05:14:27;14.20;99.90
8261;DHT22;64115;50.170;8.242;2022-10-29T05:16:54;14.20;99.90
8261;DHT22;64115;50.170;8.242;2022-10-29T05:19:21;14.20;99.90
8261;DHT22;64115;50.170;8.242;2022-10-29T05:21:48;14.20;99.90
8261;DHT22;64115;50.170;8.242;2022-10-29T05:24:15;14.20;99.90
8261;DHT22;64115;50.170;8.242;2022-10-29T05:26:41;14.20;99.90
8261;DHT22;64115;50.170;8.242;2022-10-29T05:29:10;14.20;99.90
8261;DHT22;64115;50.170;8.242;2022-10-29T05:31:37;14.20;99.90
8261;DHT22;64115;50.170;8.242;2022-10-29T05:34:03;14.20;99.90
8261;DHT22;64115;50.170;8.242;2022-10-29T05:36:30;14.20;99.90
8261;DHT22;64115;50.170;8.242;2022-10-29T05:38:57;14.20;99.90
8261;DHT22;64115;50.170;8.242;2022-10-29T05:41:24;14.30;99.90
8261;DHT22;64115;50.170;8.242;2022-10-29T05:43:51;14.40;99.90
8261;DHT22;64115;50.170;8.242;2022-10-29T05:46:19;14.40;99.90
8261;DHT22;64115;50.170;8.242;2022-10-29T05:48:46;14.40;99.90
8261;DHT22;64115;50.170;8.242;2022-10-29T05:51:12;14.50;99.90
8261;DHT22;64115;50.170;8.242;2022-10-29T05:53:39;14.70;99.90
8261;DHT22;64115;50.170;8.242;2022-10-29T05:56:06;14.70;99.90
8261;DHT22;64115;50.170;8.242;2022-10-29T05:58:33;14.90;99.90
8261;DHT22;64115;50.170;8.242;2022-10-29T06:01:04;14.90;99.90
8261;DHT22;64115;50.170;8.242;2022-10-29T06:03:32;15.10;99.90
8261;DHT22;64115;50.170;8.242;2022-10-29T06:05:59;15.20;99.90
8261;DHT22;64115;50.170;8.242;2022-10-29T06:08:26;15.20;99.90
8261;DHT22;64115;50.170;8.242;2022-10-29T06:10:53;15.20;99.90
8261;DHT22;64115;50.170;8.242;2022-10-29T06:13:21;15.30;99.90
8261;DHT22;64115;50.170;8.242;2022-10-29T06:15:49;15.30;99.90
8261;DHT22;64115;50.170;8.242;2022-10-29T06:18:21;15.40;99.90
8261;DHT22;64115;50.170;8.242;2022-10-29T06:20:49;15.50;99.90
8261;DHT22;64115;50.170;8.242;2022-10-29T06:23:16;15.50;99.90
8261;DHT22;64115;50.170;8.242;2022-10-29T06:25:43;15.50;99.90
8261;DHT22;64115;50.170;8.242;2022-10-29T06:28:11;15.60;99.90
8261;DHT22;64115;50.170;8.242;2022-10-29T06:30:40;15.60;99.90
8261;DHT22;64115;50.170;8.242;2022-10-29T06:33:07;15.60;99.90
8261;DHT22;64115;50.170;8.242;2022-10-29T06:35:34;15.60;99.90
8261;DHT22;64115;50.170;8.242;2022-10-29T06:38:02;15.60;99.90
8261;DHT22;64115;50.170;8.242;2022-10-29T06:40:29;15.50;99.90
8261;DHT22;64115;50.170;8.242;2022-10-29T06:42:59;15.50;99.90
8261;DHT22;64115;50.170;8.242;2022-10-29T06:45:26;15.50;99.90
8261;DHT22;64115;50.170;8.242;2022-10-29T06:47:53;15.50;99.90
8261;DHT22;64115;50.170;8.242;2022-10-29T06:50:20;15.50;99.90
8261;DHT22;64115;50.170;8.242;2022-10-29T06:52:53;15.50;99.90
8261;DHT22;64115;50.170;8.242;2022-10-29T06:55:22;15.50;99.90
8261;DHT22;64115;50.170;8.242;2022-10-29T06:57:55;15.50;99.90
8261;DHT22;64115;50.170;8.242;2022-10-29T07:00:22;15.60;99.90
8261;DHT22;64115;50.170;8.242;2022-10-29T07:02:49;15.60;99.90
8261;DHT22;64115;50.170;8.242;2022-10-29T07:05:16;15.80;99.90
8261;DHT22;64115;50.170;8.242;2022-10-29T07:07:43;15.90;99.90
8261;DHT22;64115;50.170;8.242;2022-10-29T07:10:10;15.90;99.90
8261;DHT22;64115;50.170;8.242;2022-10-29T07:12:39;16.00;99.90
8261;DHT22;64115;50.170;8.242;2022-10-29T07:15:08;16.00;99.90
8261;DHT22;64115;50.170;8.242;2022-10-29T07:17:35;16.10;99.90
8261;DHT22;64115;50.170;8.242;2022-10-29T07:20:03;16.10;99.90
8261;DHT22;64115;50.170;8.242;2022-10-29T07:22:32;16.20;99.90
8261;DHT22;64115;50.170;8.242;2022-10-29T07:24:58;16.30;99.90
8261;DHT22;64115;50.170;8.242;2022-10-29T07:27:26;16.30;99.90
8261;DHT22;64115;50.170;8.242;2022-10-29T07:29:55;16.40;99.90
8261;DHT22;64115;50.170;8.242;2022-10-29T07:32:22;16.50;99.90
8261;DHT22;64115;50.170;8.242;2022-10-29T07:34:48;16.50;99.90
8261;DHT22;64115;50.170;8.242;2022-10-29T07:37:15;16.60;99.90
8261;DHT22;64115;50.170;8.242;2022-10-29T07:39:42;16.60;99.90
8261;DHT22;64115;50.170;8.242;2022-10-29T07:42:09;16.60;99.90
8261;DHT22;64115;50.170;8.242;2022-10-29T07:44:36;16.60;99.90
8261;DHT22;64115;50.170;8.242;2022-10-29T07:47:04;16.70;99.90
8261;DHT22;64115;50.170;8.242;2022-10-29T07:49:31;16.70;99.90
8261;DHT22;64115;50.170;8.242;2022-10-29T07:51:57;16.70;99.90
8261;DHT22;64115;50.170;8.242;2022-10-29T07:54:24;16.70;99.90
8261;DHT22;64115;50.170;8.242;2022-10-29T07:56:51;16.80;99.90
8261;DHT22;64115;50.170;8.242;2022-10-29T07:59:18;16.70;99.90
8261;DHT22;64115;50.170;8.242;2022-10-29T08:01:46;16.80;99.90
8261;DHT22;64115;50.170;8.242;2022-10-29T08:04:14;16.80;99.90
8261;DHT22;64115;50.170;8.242;2022-10-29T08:06:41;16.90;99.90
8261;DHT22;64115;50.170;8.242;2022-10-29T08:09:09;16.80;99.90
8261;DHT22;64115;50.170;8.242;2022-10-29T08:11:37;16.80;99.90
8261;DHT22;64115;50.170;8.242;2022-10-29T08:14:03;16.80;99.90
8261;DHT22;64115;50.170;8.242;2022-10-29T08:16:30;16.80;99.90
8261;DHT22;64115;50.170;8.242;2022-10-29T08:18:57;16.70;99.90
8261;DHT22;64115;50.170;8.242;2022-10-29T08:21:25;16.70;99.90
8261;DHT22;64115;50.170;8.242;2022-10-29T08:23:52;16.70;99.90
8261;DHT22;64115;50.170;8.242;2022-10-29T08:26:19;16.60;99.90
8261;DHT22;64115;50.170;8.242;2022-10-29T08:28:45;16.60;99.90
8261;DHT22;64115;50.170;8.242;2022-10-29T08:31:12;16.60;99.90
8261;DHT22;64115;50.170;8.242;2022-10-29T08:33:40;16.60;99.90
8261;DHT22;64115;50.170;8.242;2022-10-29T08:36:07;16.60;99.90
8261;DHT22;64115;50.170;8.242;2022-10-29T08:38:35;16.60;99.90
8261;DHT22;64115;50.170;8.242;2022-10-29T08:41:15;16.60;99.90
8261;DHT22;64115;50.170;8.242;2022-10-29T08:46:46;16.60;99.90
8261;DHT22;64115;50.170;8.242;2022-10-29T08:49:17;16.70;99.90
8261;DHT22;64115;50.170;8.242;2022-10-29T08:51:50;16.80;99.90
8261;DHT22;64115;50.170;8.242;2022-10-29T08:54:21;16.80;99.90
8261;DHT22;64115;50.170;8.242;2022-10-29T08:56:51;16.80;99.90
8261;DHT22;64115;50.170;8.242;2022-10-29T08:59:21;16.80;99.90
8261;DHT22;64115;50.170;8.242;2022-10-29T09:01:48;16.70;99.90
8261;DHT22;64115;50.170;8.242;2022-10-29T09:04:22;16.60;99.90
8261;DHT22;64115;50.170;8.242;2022-10-29T09:07:06;16.70;99.90
8261;DHT22;64115;50.170;8.242;2022-10-29T09:09:42;16.60;99.90
8261;DHT22;64115;50.170;8.242;2022-10-29T09:12:27;16.60;99.90
8261;DHT22;64115;50.170;8.242;2022-10-29T09:15:39;16.50;99.90
8261;DHT22;64115;50.170;8.242;2022-10-29T09:18:30;16.50;99.90
8261;DHT22;64115;50.170;8.242;2022-10-29T09:21:07;16.60;99.90
8261;DHT22;64115;50.170;8.242;2022-10-29T09:23:50;16.80;99.90
8261;DHT22;64115;50.170;8.242;2022-10-29T09:26:28;16.90;99.90
8261;DHT22;64115;50.170;8.242;2022-10-29T09:29:05;17.00;99.90
8261;DHT22;64115;50.170;8.242;2022-10-29T09:31:39;17.20;99.90
8261;DHT22;64115;50.170;8.242;2022-10-29T09:34:12;17.40;99.90
8261;DHT22;64115;50.170;8.242;2022-10-29T09:36:43;17.40;99.90
8261;DHT22;64115;50.170;8.242;2022-10-29T09:39:13;17.50;99.90
8261;DHT22;64115;50.170;8.242;2022-10-29T09:41:43;17.50;99.90
8261;DHT22;64115;50.170;8.242;2022-10-29T09:44:17;17.50;99.90
8261;DHT22;64115;50.170;8.242;2022-10-29T09:46:52;17.50;99.90
8261;DHT22;64115;50.170;8.242;2022-10-29T09:49:34;17.50;99.90
8261;DHT22;64115;50.170;8.242;2022-10-29T09:52:06;17.60;99.90
8261;DHT22;64115;50.170;8.242;2022-10-29T09:54:35;17.60;99.90
8261;DHT22;64115;50.170;8.242;2022-10-29T09:57:04;17.60;99.90
8261;DHT22;64115;50.170;8.242;2022-10-29T09:59:33;17.50;99.90
8261;DHT22;64115;50.170;8.242;2022-10-29T10:02:06;17.40;99.90
8261;DHT22;64115;50.170;8.242;2022-10-29T10:04:44;17.30;99.90
8261;DHT22;64115;50.170;8.242;2022-10-29T10:07:16;17.30;99.90
8261;DHT22;64115;50.170;8.242;2022-10-29T10:09:52;17.30;99.90
8261;DHT22;64115;50.170;8.242;2022-10-29T10:12:22;17.40;99.90
8261;DHT22;64115;50.170;8.242;2022-10-29T10:15:04;17.40;99.90
8261;DHT22;64115;50.170;8.242;2022-10-29T10:17:54;17.40;99.90
8261;DHT22;64115;50.170;8.242;2022-10-29T10:20:30;17.50;99.90
8261;DHT22;64115;50.170;8.242;2022-10-29T10:22:57;17.50;99.90
8261;DHT22;64115;50.170;8.242;2022-10-29T10:25:32;17.60;99.90
8261;DHT22;64115;50.170;8.242;2022-10-29T10:28:13;17.60;99.90
8261;DHT22;64115;50.170;8.242;2022-10-29T10:30:40;17.80;99.90
8261;DHT22;64115;50.170;8.242;2022-10-29T10:33:22;18.00;99.90
8261;DHT22;64115;50.170;8.242;2022-10-29T10:35:49;18.20;99.90
8261;DHT22;64115;50.170;8.242;2022-10-29T10:38:17;18.30;99.90
8261;DHT22;64115;50.170;8.242;2022-10-29T10:40:53;18.40;99.90
8261;DHT22;64115;50.170;8.242;2022-10-29T10:43:23;18.50;99.90
8261;DHT22;64115;50.170;8.242;2022-10-29T10:45:54;18.60;99.90
8261;DHT22;64115;50.170;8.242;2022-10-29T10:48:23;18.80;99.90
8261;DHT22;64115;50.170;8.242;2022-10-29T10:50:51;18.80;99.90
8261;DHT22;64115;50.170;8.242;2022-10-29T11:10:32;18.40;99.90
8261;DHT22;64115;50.170;8.242;2022-10-29T11:13:02;18.40;99.90
8261;DHT22;64115;50.170;8.242;2022-10-29T11:15:36;18.40;99.90
8261;DHT22;64115;50.170;8.242;2022-10-29T11:18:12;18.40;99.90
8261;DHT22;64115;50.170;8.242;2022-10-29T11:20:44;18.40;99.90
8261;DHT22;64115;50.170;8.242;2022-10-29T11:23:25;18.50;99.90
8261;DHT22;64115;50.170;8.242;2022-10-29T11:25:59;18.50;99.90
8261;DHT22;64115;50.170;8.242;2022-10-29T11:28:32;18.60;99.90
8261;DHT22;64115;50.170;8.242;2022-10-29T11:31:09;18.70;99.90
8261;DHT22;64115;50.170;8.242;2022-10-29T11:33:47;18.80;99.90
8261;DHT22;64115;50.170;8.242;2022-10-29T11:36:18;18.80;99.90
8261;DHT22;64115;50.170;8.242;2022-10-29T11:38:49;18.80;99.90
8261;DHT22;64115;50.170;8.242;2022-10-29T11:41:25;18.70;99.90
8261;DHT22;64115;50.170;8.242;2022-10-29T11:43:53;18.70;99.90
8261;DHT22;64115;50.170;8.242;2022-10-29T11:46:27;18.60;99.90
8261;DHT22;64115;50.170;8.242;2022-10-29T11:49:04;18.60;99.90
8261;DHT22;64115;50.170;8.242;2022-10-29T11:51:39;18.50;99.90
8261;DHT22;64115;50.170;8.242;2022-10-29T11:54:15;18.50;99.90
8261;DHT22;64115;50.170;8.242;2022-10-29T11:56:52;18.60;99.90
8261;DHT22;64115;50.170;8.242;2022-10-29T11:59:30;18.60;99.90
8261;DHT22;64115;50.170;8.242;2022-10-29T12:02:12;18.60;99.90
8261;DHT22;64115;50.170;8.242;2022-10-29T12:04:46;18.60;99.90
8261;DHT22;64115;50.170;8.242;2022-10-29T12:07:23;18.60;99.90
8261;DHT22;64115;50.170;8.242;2022-10-29T12:10:13;18.60;99.90
8261;DHT22;64115;50.170;8.242;2022-10-29T12:12:49;18.60;99.90
8261;DHT22;64115;50.170;8.242;2022-10-29T12:15:22;18.60;99.90
8261;DHT22;64115;50.170;8.242;2022-10-29T12:17:58;18.70;99.90
8261;DHT22;64115;50.170;8.242;2022-10-29T12:20:30;18.70;99.90
8261;DHT22;64115;50.170;8.242;2022-10-29T12:23:07;18.70;99.90
8261;DHT22;64115;50.170;8.242;2022-10-29T12:25:41;18.70;99.90
8261;DHT22;64115;50.170;8.242;2022-10-29T12:28:22;18.60;99.90
8261;DHT22;64115;50.170;8.242;2022-10-29T12:31:03;18.60;99.90
8261;DHT22;64115;50.170;8.242;2022-10-29T12:33:36;18.50;99.90
8261;DHT22;64115;50.170;8.242;2022-10-29T12:36:11;18.50;99.90
8261;DHT22;64115;50.170;8.242;2022-10-29T12:38:41;18.50;99.90
8261;DHT22;64115;50.170;8.242;2022-10-29T12:41:12;18.40;99.90
8261;DHT22;64115;50.170;8.242;2022-10-29T12:43:42;18.40;99.90
8261;DHT22;64115;50.170;8.242;2022-10-29T12:46:18;18.30;99.90
8261;DHT22;64115;50.170;8.242;2022-10-29T12:48:59;18.30;99.90
8261;DHT22;64115;50.170;8.242;2022-10-29T12:51:34;18.30;99.90
8261;DHT22;64115;50.170;8.242;2022-10-29T12:54:15;18.30;99.90
8261;DHT22;64115;50.170;8.242;2022-10-29T12:56:44;18.30;99.90
8261;DHT22;64115;50.170;8.242;2022-10-29T12:59:28;18.30;99.90
8261;DHT22;64115;50.170;8.242;2022-10-29T13:02:26;18.20;99.90
8261;DHT22;64115;50.170;8.242;2022-10-29T13:05:17;18.30;99.90
8261;DHT22;64115;50.170;8.242;2022-10-29T13:10:55;18.40;99.90
8261;DHT22;64115;50.170;8.242;2022-10-29T13:13:39;18.40;99.90
8261;DHT22;64115;50.170;8.242;2022-10-29T13:16:14;18.40;99.90
8261;DHT22;64115;50.170;8.242;2022-10-29T13:18:51;18.50;99.90
8261;DHT22;64115;50.170;8.242;2022-10-29T13:22:05;18.60;99.90
8261;DHT22;64115;50.170;8.242;2022-10-29T13:24:34;18.70;99.90
8261;DHT22;64115;50.170;8.242;2022-10-29T13:27:04;18.80;99.90
8261;DHT22;64115;50.170;8.242;2022-10-29T13:32:44;18.90;99.90
8261;DHT22;64115;50.170;8.242;2022-10-29T13:35:38;19.00;99.90
8261;DHT22;64115;50.170;8.242;2022-10-29T13:38:11;19.00;99.90
8261;DHT22;64115;50.170;8.242;2022-10-29T13:43:30;19.00;99.90
8261;DHT22;64115;50.170;8.242;2022-10-29T13:46:21;19.00;99.90
8261;DHT22;64115;50.170;8.242;2022-10-29T13:48:51;19.00;99.90
8261;DHT22;64115;50.170;8.242;2022-10-29T13:51:26;19.00;99.90
8261;DHT22;64115;50.170;8.242;2022-10-29T13:53:57;19.10;99.90
8261;DHT22;64115;50.170;8.242;2022-10-29T13:56:32;19.20;99.90
8261;DHT22;64115;50.170;8.242;2022-10-29T13:59:01;19.20;99.90
8261;DHT22;64115;50.170;8.242;2022-10-29T14:01:31;19.20;99.90
8261;DHT22;64115;50.170;8.242;2022-10-29T14:04:04;19.20;99.90
8261;DHT22;64115;50.170;8.242;2022-10-29T14:06:36;19.20;99.90
8261;DHT22;64115;50.170;8.242;2022-10-29T14:09:12;19.20;99.90
8261;DHT22;64115;50.170;8.242;2022-10-29T14:11:43;19.20;99.90
8261;DHT22;64115;50.170;8.242;2022-10-29T14:14:29;19.20;99.90
8261;DHT22;64115;50.170;8.242;2022-10-29T14:17:13;19.20;99.90
8261;DHT22;64115;50.170;8.242;2022-10-29T14:19:46;19.20;99.90
8261;DHT22;64115;50.170;8.242;2022-10-29T14:22:33;19.20;99.90
8261;DHT22;64115;50.170;8.242;2022-10-29T14:25:03;19.20;99.90
8261;DHT22;64115;50.170;8.242;2022-10-29T14:27:46;19.20;99.90
8261;DHT22;64115;50.170;8.242;2022-10-29T14:30:18;19.10;99.90
8261;DHT22;64115;50.170;8.242;2022-10-29T14:32:45;19.10;99.90
8261;DHT22;64115;50.170;8.242;2022-10-29T14:35:16;19.10;99.90
8261;DHT22;64115;50.170;8.242;2022-10-29T14:37:45;19.10;99.90
8261;DHT22;64115;50.170;8.242;2022-10-29T14:40:18;19.20;99.90
8261;DHT22;64115;50.170;8.242;2022-10-29T14:42:48;19.10;99.90
8261;DHT22;64115;50.170;8.242;2022-10-29T14:45:19;18.90;99.90
8261;DHT22;64115;50.170;8.242;2022-10-29T14:47:50;18.80;99.90
8261;DHT22;64115;50.170;8.242;2022-10-29T14:50:20;18.80;99.90
8261;DHT22;64115;50.170;8.242;2022-10-29T14:52:50;18.50;99.90
8261;DHT22;64115;50.170;8.242;2022-10-29T14:55:21;18.40;99.90
8261;DHT22;64115;50.170;8.242;2022-10-29T14:57:52;18.20;99.90
8261;DHT22;64115;50.170;8.242;2022-10-29T15:00:24;18.10;99.90
8261;DHT22;64115;50.170;8.242;2022-10-29T15:02:53;17.90;99.90
8261;DHT22;64115;50.170;8.242;2022-10-29T15:05:24;17.80;99.90
8261;DHT22;64115;50.170;8.242;2022-10-29T15:08:03;17.80;99.90
8261;DHT22;64115;50.170;8.242;2022-10-29T15:10:30;17.80;99.90
8261;DHT22;64115;50.170;8.242;2022-10-29T15:12:57;17.80;99.90
8261;DHT22;64115;50.170;8.242;2022-10-29T15:15:26;17.80;99.90
8261;DHT22;64115;50.170;8.242;2022-10-29T15:17:57;17.80;99.90
8261;DHT22;64115;50.170;8.242;2022-10-29T15:20:31;17.70;99.90
8261;DHT22;64115;50.170;8.242;2022-10-29T15:22:59;17.70;99.90
8261;DHT22;64115;50.170;8.242;2022-10-29T15:25:30;17.70;99.90
8261;DHT22;64115;50.170;8.242;2022-10-29T15:27:58;17.70;99.90
8261;DHT22;64115;50.170;8.242;2022-10-29T15:30:32;17.70;99.90
8261;DHT22;64115;50.170;8.242;2022-10-29T15:33:01;17.70;99.90
8261;DHT22;64115;50.170;8.242;2022-10-29T15:35:34;17.60;99.90
8261;DHT22;64115;50.170;8.242;2022-10-29T15:38:02;17.50;99.90
8261;DHT22;64115;50.170;8.242;2022-10-29T15:40:29;17.50;99.90
8261;DHT22;64115;50.170;8.242;2022-10-29T15:43:25;17.30;99.90
8261;DHT22;64115;50.170;8.242;2022-10-29T15:45:54;17.20;99.90
8261;DHT22;64115;50.170;8.242;2022-10-29T15:48:34;17.20;99.90
8261;DHT22;64115;50.170;8.242;2022-10-29T15:51:03;17.10;99.90
8261;DHT22;64115;50.170;8.242;2022-10-29T15:53:30;16.90;99.90
8261;DHT22;64115;50.170;8.242;2022-10-29T15:55:57;17.00;99.90
8261;DHT22;64115;50.170;8.242;2022-10-29T15:58:25;17.00;99.90
8261;DHT22;64115;50.170;8.242;2022-10-29T16:00:51;16.90;99.90
8261;DHT22;64115;50.170;8.242;2022-10-29T16:03:20;16.90;99.90
8261;DHT22;64115;50.170;8.242;2022-10-29T16:05:49;17.00;99.90
8261;DHT22;64115;50.170;8.242;2022-10-29T16:08:22;17.00;99.90
8261;DHT22;64115;50.170;8.242;2022-10-29T16:10:50;17.00;99.90
8261;DHT22;64115;50.170;8.242;2022-10-29T16:13:17;16.90;99.90
8261;DHT22;64115;50.170;8.242;2022-10-29T16:15:44;16.80;99.90
8261;DHT22;64115;50.170;8.242;2022-10-29T16:18:11;16.70;99.90
8261;DHT22;64115;50.170;8.242;2022-10-29T16:20:38;16.50;99.90
8261;DHT22;64115;50.170;8.242;2022-10-29T16:23:07;16.30;99.90
8261;DHT22;64115;50.170;8.242;2022-10-29T16:25:36;16.20;99.90
8261;DHT22;64115;50.170;8.242;2022-10-29T16:28:04;16.10;99.90
8261;DHT22;64115;50.170;8.242;2022-10-29T16:30:30;16.10;99.90
8261;DHT22;64115;50.170;8.242;2022-10-29T16:32:59;16.10;99.90
8261;DHT22;64115;50.170;8.242;2022-10-29T16:35:27;16.10;99.90
8261;DHT22;64115;50.170;8.242;2022-10-29T16:37:55;16.10;99.90
8261;DHT22;64115;50.170;8.242;2022-10-29T16:40:23;16.10;99.90
8261;DHT22;64115;50.170;8.242;2022-10-29T16:42:52;16.20;99.90
8261;DHT22;64115;50.170;8.242;2022-10-29T16:45:21;16.10;99.90
8261;DHT22;64115;50.170;8.242;2022-10-29T16:47:48;16.10;99.90
8261;DHT22;64115;50.170;8.242;2022-10-29T16:50:18;16.10;99.90
8261;DHT22;64115;50.170;8.242;2022-10-29T16:52:46;16.10;99.90
8261;DHT22;64115;50.170;8.242;2022-10-29T16:55:13;16.10;99.90
8261;DHT22;64115;50.170;8.242;2022-10-29T16:57:40;16.00;99.90
8261;DHT22;64115;50.170;8.242;2022-10-29T17:00:09;15.90;99.90
8261;DHT22;64115;50.170;8.242;2022-10-29T17:02:36;15.90;99.90
8261;DHT22;64115;50.170;8.242;2022-10-29T17:05:05;15.90;99.90
8261;DHT22;64115;50.170;8.242;2022-10-29T17:07:32;15.90;99.90
8261;DHT22;64115;50.170;8.242;2022-10-29T17:09:59;15.90;99.90
8261;DHT22;64115;50.170;8.242;2022-10-29T17:12:26;16.00;99.90
8261;DHT22;64115;50.170;8.242;2022-10-29T17:14:53;16.00;99.90
8261;DHT22;64115;50.170;8.242;2022-10-29T17:17:21;16.10;99.90